createdAt,value
2023-03-22T00:02:17.318Z,99463.80
2023-03-22T00:04:45.224Z,99463.00
2023-03-22T00:07:13.217Z,99458.00
2023-03-22T00:09:41.061Z,99455.60
2023-03-22T00:12:08.988Z,99448.20
2023-03-22T00:14:36.843Z,99443.40
2023-03-22T00:17:04.723Z,99442.60
2023-03-22T00:19:34.112Z,99435.60
2023-03-22T00:22:03.627Z,99431.80
2023-03-22T00:24:32.024Z,99431.60
2023-03-22T00:27:00.992Z,99419.20
2023-03-22T00:29:28.867Z,99419.20
2023-03-22T00:31:56.709Z,99407.20
2023-03-22T00:34:24.685Z,99407.00
2023-03-22T00:36:52.573Z,99404.00
2023-03-22T00:39:20.978Z,99393.80
2023-03-22T00:41:48.843Z,99390.20
2023-03-22T00:44:16.892Z,99379.60
2023-03-22T00:46:45.926Z,99370.00
2023-03-22T00:49:13.905Z,99371.20
2023-03-22T00:51:41.766Z,99364.00
2023-03-22T00:54:09.609Z,99357.60
2023-03-22T00:56:38.495Z,99354.00
2023-03-22T00:59:13.931Z,99342.40
2023-03-22T01:01:43.216Z,99339.40
2023-03-22T01:04:15.409Z,99333.80
2023-03-22T01:06:44.756Z,99322.00
2023-03-22T01:09:15.372Z,99324.80
2023-03-22T01:11:44.197Z,99325.80
2023-03-22T01:14:13.983Z,99324.40
2023-03-22T01:16:42.193Z,99319.80
2023-03-22T01:19:10.654Z,99321.60
2023-03-22T01:21:38.842Z,99324.80
2023-03-22T01:24:07.245Z,99329.60
2023-03-22T01:26:35.851Z,99324.80
2023-03-22T01:29:03.860Z,99321.80
2023-03-22T01:31:31.863Z,99313.40
2023-03-22T01:33:59.740Z,99312.60
2023-03-22T01:36:27.757Z,99306.00
2023-03-22T01:38:56.448Z,99300.40
2023-03-22T01:41:25.425Z,99292.60
2023-03-22T01:44:13.835Z,99306.40
2023-03-22T01:46:45.466Z,99293.80
2023-03-22T01:49:26.003Z,99288.20
2023-03-22T01:52:00.736Z,99279.20
2023-03-22T01:54:47.034Z,99262.80
2023-03-22T01:57:41.714Z,99259.80
2023-03-22T02:00:15.809Z,99251.80
2023-03-22T02:03:06.375Z,99249.40
2023-03-22T02:05:38.732Z,99244.00
2023-03-22T02:08:09.003Z,99241.80
2023-03-22T02:10:55.730Z,99235.80
2023-03-22T02:13:42.456Z,99237.80
2023-03-22T02:17:06.253Z,99235.20
2023-03-22T02:19:54.187Z,99230.00
2023-03-22T02:22:28.364Z,99231.80
2023-03-22T02:25:33.938Z,99217.20
2023-03-22T02:28:24.648Z,99206.00
2023-03-22T02:31:16.694Z,99211.60
2023-03-22T02:34:15.706Z,99196.00
2023-03-22T02:37:08.366Z,99184.20
2023-03-22T02:39:57.758Z,99177.60
2023-03-22T02:42:41.951Z,99166.80
2023-03-22T02:45:24.876Z,99170.40
2023-03-22T02:48:05.718Z,99167.20
2023-03-22T02:50:51.400Z,99173.80
2023-03-22T02:53:33.234Z,99168.00
2023-03-22T02:56:14.855Z,99170.80
2023-03-22T02:58:49.139Z,99149.00
2023-03-22T03:01:27.262Z,99156.60
2023-03-22T03:04:01.249Z,99152.60
2023-03-22T03:06:35.804Z,99154.80
2023-03-22T03:09:05.380Z,99146.40
2023-03-22T03:11:33.941Z,99146.80
2023-03-22T03:14:01.980Z,99137.80
2023-03-22T03:16:36.727Z,99143.80
2023-03-22T03:19:27.992Z,99138.60
2023-03-22T03:22:40.587Z,99133.80
2023-03-22T03:25:29.875Z,99135.60
2023-03-22T03:28:30.324Z,99129.00
2023-03-22T03:31:16.293Z,99121.40
2023-03-22T03:34:09.632Z,99123.20
2023-03-22T03:36:46.168Z,99119.20
2023-03-22T03:39:17.609Z,99124.40
2023-03-22T03:41:49.973Z,99118.40
2023-03-22T03:44:19.338Z,99110.20
2023-03-22T03:46:48.993Z,99115.00
2023-03-22T03:49:18.119Z,99113.40
2023-03-22T03:51:49.972Z,99105.60
2023-03-22T03:54:18.043Z,99107.00
2023-03-22T03:56:47.806Z,99109.80
2023-03-22T03:59:18.063Z,99110.80
2023-03-22T04:01:51.696Z,99109.80
2023-03-22T04:04:28.221Z,99112.60
2023-03-22T04:07:06.587Z,99117.00
2023-03-22T04:09:39.109Z,99114.40
2023-03-22T04:12:17.065Z,99116.00
2023-03-22T04:14:49.516Z,99119.00
2023-03-22T04:17:23.103Z,99116.80
2023-03-22T04:19:53.513Z,99116.40
2023-03-22T04:22:21.442Z,99102.40
2023-03-22T04:24:52.406Z,99108.80
2023-03-22T04:27:22.516Z,99109.60
2023-03-22T04:30:01.002Z,99113.20
2023-03-22T04:32:48.382Z,99105.80
2023-03-22T04:35:17.694Z,99113.60
2023-03-22T04:37:45.808Z,99107.80
2023-03-22T04:40:16.843Z,99108.40
2023-03-22T04:43:04.200Z,99110.00
2023-03-22T04:45:46.232Z,99109.00
2023-03-22T04:48:17.573Z,99111.80
2023-03-22T04:50:45.717Z,99113.00
2023-03-22T04:53:13.692Z,99108.80
2023-03-22T04:55:43.013Z,99112.40
2023-03-22T04:58:11.198Z,99105.60
2023-03-22T05:00:39.284Z,99109.40
2023-03-22T05:03:07.373Z,99102.40
2023-03-22T05:05:49.035Z,99106.00
2023-03-22T05:08:16.971Z,99099.20
2023-03-22T05:10:47.258Z,99097.20
2023-03-22T05:13:15.369Z,99095.20
2023-03-22T05:15:49.107Z,99092.80
2023-03-22T05:18:21.585Z,99091.00
2023-03-22T05:20:49.886Z,99092.20
2023-03-22T05:23:21.171Z,99095.60
2023-03-22T05:25:53.418Z,99092.20
2023-03-22T05:28:22.374Z,99093.40
2023-03-22T05:31:05.556Z,99096.00
2023-03-22T05:33:41.872Z,99097.20
2023-03-22T05:36:13.600Z,99097.20
2023-03-22T05:38:56.718Z,99090.80
2023-03-22T05:41:24.814Z,99086.60
2023-03-22T05:43:52.628Z,99091.40
2023-03-22T05:46:21.193Z,99092.20
2023-03-22T05:49:07.297Z,99089.60
2023-03-22T05:51:41.707Z,99082.60
2023-03-22T05:54:10.441Z,99084.20
2023-03-22T05:56:44.138Z,99092.20
2023-03-22T05:59:11.997Z,99087.00
2023-03-22T06:01:40.136Z,99092.20
2023-03-22T06:04:18.760Z,99094.20
2023-03-22T06:06:56.457Z,99090.60
2023-03-22T06:09:44.988Z,99093.80
2023-03-22T06:12:17.123Z,99097.40
2023-03-22T06:14:48.492Z,99088.80
2023-03-22T06:17:42.378Z,99087.60
2023-03-22T06:20:14.561Z,99087.20
2023-03-22T06:22:46.729Z,99087.40
2023-03-22T06:25:14.928Z,99084.60
2023-03-22T06:27:45.891Z,99077.00
2023-03-22T06:30:14.314Z,99089.20
2023-03-22T06:33:06.199Z,99086.00
2023-03-22T06:35:36.937Z,99072.40
2023-03-22T06:38:05.384Z,99073.80
2023-03-22T06:40:35.720Z,99076.40
2023-03-22T06:43:07.015Z,99076.00
2023-03-22T06:45:36.000Z,99072.00
2023-03-22T06:48:04.514Z,99083.40
2023-03-22T06:50:45.074Z,99062.80
2023-03-22T06:53:15.968Z,99017.00
2023-03-22T06:55:44.454Z,99010.60
2023-03-22T06:58:15.436Z,99026.80
2023-03-22T07:00:43.350Z,99044.20
2023-03-22T07:03:11.537Z,99066.20
2023-03-22T07:05:46.762Z,99039.20
2023-03-22T07:08:14.661Z,99056.60
2023-03-22T07:10:51.329Z,99059.40
2023-03-22T07:13:21.388Z,99062.60
2023-03-22T07:15:49.896Z,99076.20
2023-03-22T07:18:33.615Z,99070.20
2023-03-22T07:21:01.462Z,99073.20
2023-03-22T07:23:29.845Z,99077.80
2023-03-22T07:26:01.932Z,99069.40
2023-03-22T07:28:33.478Z,99075.80
2023-03-22T07:31:12.761Z,99075.60
2023-03-22T07:33:54.850Z,99079.20
2023-03-22T07:36:25.618Z,99067.20
2023-03-22T07:38:54.304Z,99082.20
2023-03-22T07:41:34.870Z,99084.00
2023-03-22T07:44:22.481Z,99082.60
2023-03-22T07:47:06.654Z,99078.20
2023-03-22T07:49:41.180Z,99093.60
2023-03-22T07:52:13.729Z,99096.20
2023-03-22T07:54:41.822Z,99093.80
2023-03-22T07:57:10.598Z,99090.40
2023-03-22T07:59:44.239Z,99091.60
2023-03-22T08:02:13.049Z,99097.20
2023-03-22T08:04:45.390Z,99095.80
2023-03-22T08:07:39.414Z,99102.60
2023-03-22T08:10:08.120Z,99112.00
2023-03-22T08:12:36.060Z,99117.40
2023-03-22T08:15:11.349Z,99124.40
2023-03-22T08:17:40.267Z,99131.80
2023-03-22T08:20:14.192Z,99139.00
2023-03-22T08:22:47.531Z,99133.00
2023-03-22T08:25:27.787Z,99125.80
2023-03-22T08:27:58.597Z,99126.00
2023-03-22T08:30:28.097Z,99128.60
2023-03-22T08:32:56.471Z,99135.80
2023-03-22T08:35:24.565Z,99142.00
2023-03-22T08:37:56.865Z,99141.00
2023-03-22T08:40:28.416Z,99134.00
2023-03-22T08:43:00.849Z,99134.80
2023-03-22T08:45:29.861Z,99141.80
2023-03-22T08:48:04.540Z,99135.60
2023-03-22T08:50:37.655Z,99132.40
2023-03-22T08:53:14.731Z,99135.60
2023-03-22T08:55:47.469Z,99128.40
2023-03-22T08:58:33.513Z,99130.60
2023-03-22T09:01:21.211Z,99133.20
2023-03-22T09:03:53.998Z,99134.40
2023-03-22T09:06:22.260Z,99140.40
2023-03-22T09:08:52.167Z,99140.80
2023-03-22T09:11:22.925Z,99137.20
2023-03-22T09:13:51.954Z,99137.00
2023-03-22T09:16:20.034Z,99134.40
2023-03-22T09:18:48.247Z,99140.00
2023-03-22T09:21:18.327Z,99139.00
2023-03-22T09:23:51.195Z,99142.60
2023-03-22T09:26:22.653Z,99135.60
2023-03-22T09:28:52.252Z,99135.80
2023-03-22T09:31:20.790Z,99141.80
2023-03-22T09:33:52.360Z,99132.00
2023-03-22T09:36:20.984Z,99134.00
2023-03-22T09:38:50.030Z,99147.20
2023-03-22T09:41:28.708Z,99168.00
2023-03-22T09:44:05.290Z,99170.80
2023-03-22T09:46:44.297Z,99163.40
2023-03-22T09:49:22.553Z,99172.80
2023-03-22T09:51:55.584Z,99178.60
2023-03-22T09:54:35.962Z,99170.00
2023-03-22T09:57:28.652Z,99171.60
2023-03-22T10:01:09.536Z,99161.00
2023-03-22T10:03:52.654Z,99171.00
2023-03-22T10:06:28.299Z,99166.60
2023-03-22T10:09:14.017Z,99169.20
2023-03-22T10:11:56.481Z,99172.80
2023-03-22T10:14:34.288Z,99174.00
2023-03-22T10:17:11.732Z,99151.40
2023-03-22T10:19:48.677Z,99159.60
2023-03-22T10:22:22.535Z,99159.00
2023-03-22T10:24:53.483Z,99149.00
2023-03-22T10:27:23.654Z,99161.60
2023-03-22T10:30:24.804Z,99162.60
2023-03-22T10:33:03.220Z,99168.80
2023-03-22T10:35:33.323Z,99164.40
2023-03-22T10:38:07.281Z,99158.40
2023-03-22T10:40:37.531Z,99156.80
2023-03-22T10:43:20.441Z,99149.80
2023-03-22T10:45:50.921Z,99151.40
2023-03-22T10:48:36.274Z,99156.40
2023-03-22T10:51:05.050Z,99145.60
2023-03-22T10:53:47.508Z,99138.00
2023-03-22T10:56:20.090Z,99140.40
2023-03-22T10:58:51.086Z,99131.40
2023-03-22T11:01:27.628Z,99138.20
2023-03-22T11:04:05.887Z,99140.00
2023-03-22T11:06:40.070Z,99134.60
2023-03-22T11:09:16.553Z,99135.20
2023-03-22T11:11:54.380Z,99137.60
2023-03-22T11:14:36.860Z,99134.80
2023-03-22T11:17:12.624Z,99136.80
2023-03-22T11:19:55.085Z,99130.00
2023-03-22T11:22:37.704Z,99142.20
2023-03-22T11:25:17.869Z,99137.40
2023-03-22T11:28:17.947Z,99135.80
2023-03-22T11:31:03.159Z,99137.80
2023-03-22T11:33:32.176Z,99129.80
2023-03-22T11:36:16.248Z,99122.00
2023-03-22T11:38:46.363Z,99108.40
2023-03-22T11:41:30.481Z,99103.60
2023-03-22T11:44:22.721Z,99109.80
2023-03-22T11:46:57.921Z,99115.20
2023-03-22T11:49:38.056Z,99116.80
2023-03-22T11:52:19.251Z,99120.40
2023-03-22T11:54:47.738Z,99123.00
2023-03-22T11:57:25.435Z,99108.40
2023-03-22T12:00:24.754Z,99113.60
2023-03-22T12:03:15.824Z,99115.40
2023-03-22T12:05:47.891Z,99116.40
2023-03-22T12:08:28.236Z,99115.60
2023-03-22T12:11:06.483Z,99123.80
2023-03-22T12:14:02.257Z,99109.00
2023-03-22T12:16:46.485Z,99111.20
2023-03-22T12:19:40.695Z,99114.00
2023-03-22T12:22:18.205Z,99108.00
2023-03-22T12:24:46.241Z,99107.80
2023-03-22T12:27:39.822Z,99100.00
2023-03-22T12:30:22.899Z,99095.40
2023-03-22T12:33:14.589Z,99106.40
2023-03-22T12:35:46.555Z,99095.80
2023-03-22T12:38:33.895Z,99097.60
2023-03-22T12:41:08.133Z,99091.60
2023-03-22T12:43:55.781Z,99086.00
2023-03-22T12:46:33.497Z,99100.00
2023-03-22T12:49:19.331Z,99106.40
2023-03-22T12:51:50.259Z,99100.20
2023-03-22T12:54:23.110Z,99095.60
2023-03-22T12:56:52.132Z,99098.80
2023-03-22T12:59:27.929Z,99095.60
2023-03-22T13:02:13.000Z,99104.00
2023-03-22T13:04:43.188Z,99106.80
2023-03-22T13:07:34.340Z,99099.20
2023-03-22T13:10:30.949Z,99087.00
2023-03-22T13:13:24.248Z,99083.40
2023-03-22T13:16:13.548Z,99083.40
2023-03-22T13:18:44.143Z,99085.60
2023-03-22T13:21:22.344Z,99085.80
2023-03-22T13:23:55.240Z,99092.40
2023-03-22T13:26:54.399Z,99089.80
2023-03-22T13:29:25.652Z,99088.40
2023-03-22T13:31:58.420Z,99082.60
2023-03-22T13:34:46.894Z,99070.00
2023-03-22T13:37:42.196Z,99052.80
2023-03-22T13:40:42.362Z,99045.40
2023-03-22T13:43:27.204Z,99036.00
2023-03-22T13:46:17.843Z,99028.60
2023-03-22T13:48:49.250Z,99031.00
2023-03-22T13:51:25.213Z,99019.20
2023-03-22T13:54:18.059Z,99020.40
2023-03-22T13:57:01.359Z,99012.20
2023-03-22T14:00:13.550Z,99013.00
2023-03-22T14:02:45.701Z,99004.60
2023-03-22T14:05:22.927Z,98996.40
2023-03-22T14:07:56.290Z,98998.00
2023-03-22T14:10:46.523Z,98990.40
2023-03-22T14:13:26.062Z,98977.60
2023-03-22T14:16:02.402Z,98972.80
2023-03-22T14:18:34.480Z,98983.40
2023-03-22T14:21:09.235Z,98987.80
